Latest Weather Observations for Halls Creek

IDD60801

Issued at 4:31 pm CST Monday 27 April 2015 (issued every 30 minutes, with the page automatically refreshed every 10 minutes)

About weather observations | Map of weather stations | Latest weather observations for NT | Other Formats
Station Details ID: 002012 Name: HALLS CREEK AIRPORT Lat: -18.23 Lon: 127.66 Height: 422.0 m
Data from the previous 72 hours. | See also: Recent months at Halls Creek
Date/Time
CST
Temp
°C
App
Temp
°C
Dew
Point
Rel
Hum
%
Delta-T
°C
Wind Press
QNH
hPa
Press
MSL
hPa
Rain
since 9 am
mm
Dir
 
Spd
km/h
Gust
km/h
Spd
kts
Gust
kts
27/04:00pm 28.6 23.8 -2.3 13 14.3 ESE 13 32 7 17 1016.3 - 0.0
27/03:30pm 28.2 22.9 -3.9 12 14.4 E 15 28 8 15 1016.3 - 0.0
27/03:00pm 28.6 23.7 -3.7 12 14.6 E 13 30 7 16 1016.5 - 0.0
27/02:30pm 28.0 23.5 -3.4 12 14.2 E 11 24 6 13 1016.8 - 0.0
27/02:00pm 27.5 22.3 -2.4 14 13.7 E 15 28 8 15 1017.2 - 0.0
27/01:30pm 27.8 23.4 -2.6 13 13.9 ESE 11 26 6 14 1017.9 1015.1 0.0
27/01:00pm 26.7 21.5 -2.7 14 13.3 E 15 30 8 16 1018.3 - 0.0
27/12:30pm 26.3 21.5 -2.3 15 13.0 E 13 28 7 15 1018.5 - 0.0
27/12:00pm 24.8 19.6 -2.9 16 12.3 E 15 32 8 17 1018.8 - 0.0
27/11:30am 24.4 19.5 -3.0 16 12.1 E 13 26 7 14 1019.2 - 0.0
27/10:30am 23.3 17.4 -2.5 18 11.4 ENE 19 33 10 18 1019.5 1016.8 0.0
27/10:00am 21.9 16.8 -2.3 19 10.6 E 15 28 8 15 1019.3 - 0.0
27/09:30am 21.6 16.4 -2.5 19 10.5 E 15 26 8 14 1019.3 - 0.0
27/08:30am 19.0 15.2 -1.1 25 8.8 E 9 19 5 10 1019.3 - 0.0
27/08:00am 17.6 14.3 -1.2 28 8.1 E 6 13 3 7 1019.0 - 0.0
27/07:00am 15.3 12.2 0.1 35 6.6 ENE 6 15 3 8 1018.6 - 0.0
27/06:30am 14.4 11.9 1.6 42 5.7 E 4 9 2 5 1018.2 - 0.0
27/06:00am 14.2 11.3 1.3 41 5.7 SE 6 11 3 6 1018.0 - 0.0
27/05:30am 14.2 11.8 2.2 44 5.4 ESE 4 6 2 3 1018.0 - 0.0
27/05:00am 15.1 12.6 1.4 39 6.1 E 4 6 2 3 1017.9 - 0.0
27/04:30am 15.2 12.3 1.3 39 6.2 ESE 6 7 3 4 1017.8 1015.0 0.0
27/04:00am 15.2 12.8 2.2 41 5.9 ESE 4 7 2 4 1018.1 - 0.0
27/03:30am 15.2 13.2 2.2 41 5.9 SE 2 4 1 2 1018.3 - 0.0
27/03:00am 16.1 14.2 3.0 41 6.1 E 2 2 1 1 1018.4 - 0.0
27/02:30am 16.7 14.3 2.4 38 6.6 ENE 4 6 2 3 1018.3 - 0.0
27/02:00am 16.6 14.3 2.5 38 6.5 SE 4 6 2 3 1018.4 - 0.0
27/01:30am 17.6 15.4 1.0 32 7.5 E 2 6 1 3 1018.6 1015.9 0.0
27/01:00am 17.6 15.7 2.6 36 7.0 E 2 4 1 2 1018.8 - 0.0
27/12:30am 18.5 16.7 1.5 32 7.8 CALM 0 2 0 1 1018.9 - 0.0
27/12:00am 19.7 16.3 -0.5 25 9.0 ESE 7 11 4 6 1019.0 - 0.0
 
Date/Time
CST
Temp
°C
App
Temp
°C
Dew
Point
Rel
Hum
%
Delta-T
°C
Wind Press
QNH
hPa
Press
MSL
hPa
Rain
since 9 am
mm
Dir
 
Spd
km/h
Gust
km/h
Spd
kts
Gust
kts
26/11:30pm 20.0 17.5 1.5 29 8.6 E 4 6 2 3 1019.0 - 0.0
26/11:00pm 20.8 17.8 0.9 26 9.2 ESE 6 11 3 6 1019.0 - 0.0
26/10:30pm 21.2 18.1 0.2 24 9.6 ESE 6 11 3 6 1018.9 1016.2 0.0
26/10:00pm 21.4 18.3 -0.1 24 9.8 ESE 6 11 3 6 1019.0 - 0.0
26/09:30pm 20.9 18.3 1.1 27 9.2 ESE 4 7 2 4 1019.0 - 0.0
26/09:00pm 21.8 18.8 0.7 24 9.8 ESE 6 11 3 6 1018.8 - 0.0
26/08:30pm 22.8 19.4 -0.3 21 10.6 ESE 7 13 4 7 1018.4 - 0.0
26/08:00pm 23.7 19.9 -1.1 19 11.3 ESE 9 15 5 8 1017.9 - 0.0
26/07:30pm 23.8 20.6 -0.5 20 11.2 SE 6 19 3 10 1017.6 1014.8 0.0
26/07:00pm 24.3 21.1 0.6 21 11.2 ESE 7 13 4 7 1017.0 - 0.0
26/06:30pm 26.0 22.2 -0.4 17 12.4 ESE 9 15 5 8 1016.7 - 0.0
26/06:00pm 27.3 23.0 -1.5 15 13.4 ESE 11 20 6 11 1016.3 - 0.0
26/05:30pm 28.1 23.4 -1.7 14 13.9 ESE 13 22 7 12 1016.0 - 0.0
26/05:00pm 28.6 23.6 -1.3 14 14.1 SE 15 28 8 15 1015.7 - 0.0
26/04:30pm 29.0 25.3 -0.3 15 14.1 E 9 20 5 11 1015.8 1013.0 0.0
26/04:00pm 29.1 25.0 -0.5 14 14.2 ESE 11 20 6 11 1015.7 - 0.0
26/03:30pm 29.3 24.9 0.4 15 14.1 SE 13 30 7 16 1015.7 - 0.0
26/03:00pm 28.9 24.9 0.3 15 13.9 E 11 22 6 12 1015.9 - 0.0
26/02:30pm 28.2 23.7 -0.6 15 13.7 E 13 24 7 13 1016.4 - 0.0
26/02:00pm 28.3 23.5 0.1 16 13.6 ESE 15 30 8 16 1016.7 - 0.0
26/01:30pm 28.2 23.5 0.6 16 13.4 ESE 15 26 8 14 1017.0 1014.3 0.0
26/01:00pm 27.5 22.8 0.6 17 13.0 E 15 32 8 17 1017.7 - 0.0
26/12:30pm 26.7 22.4 0.8 18 12.5 E 13 32 7 17 1018.1 - 0.0
26/12:00pm 26.3 21.4 1.8 20 12.0 ESE 17 30 9 16 1018.7 - 0.0
26/11:30am 25.6 21.0 1.8 21 11.6 E 15 32 8 17 1019.1 - 0.0
26/11:00am 24.4 18.9 0.8 21 11.2 E 19 35 10 19 1019.5 - 0.0
26/10:30am 23.8 18.4 1.0 22 10.8 E 19 35 10 19 1019.5 1016.8 0.0
26/10:00am 23.6 19.4 1.7 23 10.5 E 13 28 7 15 1019.4 - 0.0
26/09:30am 22.7 18.1 1.3 24 10.1 E 15 30 8 16 1019.0 - 0.0
26/09:00am 21.6 17.6 2.7 28 9.1 E 13 30 7 16 1018.8 - 0.0
26/08:30am 20.3 17.5 3.3 32 8.2 E 7 15 4 8 1018.6 - 0.0
26/08:00am 17.9 15.9 4.2 40 6.6 E 4 9 2 5 1018.3 - 0.0
26/07:30am 17.0 15.1 4.9 44 5.9 E 4 7 2 4 1018.0 1015.3 0.0
26/07:00am 17.6 15.5 4.1 40 6.5 E 4 7 2 4 1017.7 - 0.0
26/06:30am 17.1 15.1 4.5 43 6.1 E 4 7 2 4 1017.3 - 0.0
26/06:00am 17.4 14.9 4.6 42 6.2 ESE 7 13 4 7 1017.1 - 0.0
26/05:30am 17.3 15.4 5.0 44 6.0 ESE 4 7 2 4 1017.0 - 0.0
26/05:00am 18.0 16.5 5.2 43 6.3 E 2 7 1 4 1017.0 - 0.0
26/04:30am 18.0 15.8 5.5 43 6.2 ESE 6 9 3 5 1017.0 1014.3 0.0
26/04:00am 18.6 16.3 4.7 40 6.8 ESE 6 7 3 4 1016.9 - 0.0
26/03:30am 18.2 16.6 6.3 45 6.0 SSE 4 6 2 3 1017.0 - 0.0
26/03:00am 19.0 17.7 6.2 43 6.5 E 2 6 1 3 1016.8 - 0.0
26/02:30am 19.4 18.2 6.5 43 6.6 E 2 4 1 2 1016.8 - 0.0
26/02:00am 19.7 18.6 6.9 43 6.6 ESE 2 4 1 2 1017.0 - 0.0
26/01:30am 21.4 19.0 4.3 32 8.5 E 6 9 3 5 1017.1 1014.4 0.0
26/01:00am 21.8 19.7 3.7 30 8.9 ESE 4 11 2 6 1017.4 - 0.0
26/12:30am 23.3 20.3 1.8 24 10.3 E 7 15 4 8 1017.6 - 0.0
26/12:00am 24.0 19.3 0.7 21 11.0 ESE 15 24 8 13 1017.6 - 0.0
 
Date/Time
CST
Temp
°C
App
Temp
°C
Dew
Point
Rel
Hum
%
Delta-T
°C
Wind Press
QNH
hPa
Press
MSL
hPa
Rain
since 9 am
mm
Dir
 
Spd
km/h
Gust
km/h
Spd
kts
Gust
kts
25/11:30pm 23.7 20.3 1.9 24 10.5 ESE 9 17 5 9 1017.6 - 0.0
25/11:00pm 24.1 21.1 2.3 24 10.6 ESE 7 13 4 7 1017.6 - 0.0
25/10:30pm 24.4 21.6 2.9 24 10.6 ESE 7 15 4 8 1017.6 1014.8 0.0
25/10:00pm 24.6 21.9 3.9 26 10.4 ESE 7 13 4 7 1017.4 - 0.0
25/09:30pm 24.9 22.5 5.1 28 10.2 ESE 7 13 4 7 1016.9 - 0.0
25/09:00pm 25.5 23.2 5.8 28 10.3 ESE 7 13 4 7 1016.6 - 0.0
25/08:30pm 26.2 23.9 5.9 27 10.7 ESE 7 13 4 7 1016.2 - 0.0
25/08:00pm 27.4 24.5 4.7 23 11.8 SE 9 19 5 10 1015.4 - 0.0
25/07:30pm 28.1 24.9 5.1 23 12.1 SE 11 24 6 13 1014.8 1012.1 0.0
25/07:00pm 27.8 25.9 6.6 26 11.4 ESE 6 11 3 6 1014.5 - 0.0
25/06:30pm 28.7 26.4 5.6 23 12.3 ESE 7 17 4 9 1014.2 - 0.0
25/06:00pm 29.3 26.2 5.4 22 12.7 SE 11 19 6 10 1013.9 - 0.0
25/05:30pm 30.9 28.2 5.7 20 13.6 ESE 9 22 5 12 1013.6 - 0.0
25/05:00pm 31.7 28.3 6.0 20 14.0 SE 13 22 7 12 1013.5 - 0.0
25/04:30pm 31.8 28.5 6.2 20 14.0 SE 13 22 7 12 1013.3 1010.5 0.0
25/04:00pm 32.1 28.5 5.2 18 14.5 SE 13 26 7 14 1013.4 - 0.0
25/03:30pm 32.2 28.7 5.4 18 14.5 SE 13 22 7 12 1013.4 - 0.0
25/03:00pm 32.5 29.6 6.3 19 14.4 SE 11 26 6 14 1013.4 - 0.0
25/02:30pm 32.3 29.4 4.9 18 14.7 ESE 9 22 5 12 1013.5 - 0.0
25/02:00pm 31.6 28.5 3.8 17 14.6 ESE 9 22 5 12 1013.8 - 0.0
25/01:30pm 31.5 28.1 4.2 18 14.4 ESE 11 28 6 15 1014.1 1011.4 0.0
25/01:00pm 30.8 27.9 4.5 19 13.9 E 9 22 5 12 1014.7 - 0.0
25/12:30pm 30.9 28.2 5.7 20 13.6 ESE 9 22 5 12 1015.3 - 0.0
25/12:00pm 29.7 27.1 5.9 22 12.8 E 9 19 5 10 1015.8 - 0.0
25/11:30am 28.4 24.6 5.9 24 12.0 ESE 15 28 8 15 1016.2 - 0.0
25/11:00am 27.9 24.6 6.2 25 11.6 ESE 13 22 7 12 1016.7 - 0.0
25/10:30am 27.0 24.0 5.8 26 11.2 E 11 17 6 9 1016.8 1014.1 0.0
25/10:00am 26.4 23.3 5.6 26 10.9 ESE 11 19 6 10 1016.6 - 0.0
25/09:30am 25.3 22.2 5.5 28 10.3 ESE 11 19 6 10 1016.3 - 0.0
25/09:00am 24.0 21.2 5.3 30 9.6 ESE 9 19 5 10 1016.3 - 0.0
25/08:30am 23.2 20.9 5.8 32 9.0 E 7 13 4 7 1016.2 - 0.0
25/08:00am 22.0 21.1 7.7 39 7.6 ENE 2 4 1 2 1016.0 - 0.0
25/07:30am 20.9 19.0 6.6 39 7.4 SE 6 11 3 6 1015.6 1012.8 0.0
25/07:00am 20.4 18.6 7.1 42 6.9 SE 6 9 3 5 1015.3 - 0.0
25/06:30am 20.7 20.1 8.8 46 6.4 ENE 2 4 1 2 1014.9 - 0.0
25/06:00am 21.4 20.3 8.3 43 7.0 ESE 4 9 2 5 1014.6 - 0.0
25/05:30am 22.2 19.7 6.4 36 8.2 SE 9 19 5 10 1014.5 - 0.0
25/05:00am 22.7 20.1 6.1 34 8.6 SE 9 17 5 9 1014.7 - 0.0
25/04:30am 23.3 20.6 5.7 32 9.1 SE 9 20 5 11 1014.8 1012.1 0.0
25/04:00am 22.5 20.9 7.9 39 7.8 SE 6 13 3 7 1015.1 - 0.0
25/03:30am 23.3 22.2 8.6 39 8.0 SSE 4 9 2 5 1014.8 - 0.0
25/03:00am 23.3 22.2 9.8 42 7.5 SSE 6 9 3 5 1015.1 - 0.0
25/02:30am 23.5 23.3 10.3 43 7.4 SE 2 6 1 3 1015.1 - 0.0
25/02:00am 24.2 23.7 9.2 38 8.3 ENE 2 6 1 3 1015.2 - 0.0
25/01:30am 24.6 23.4 9.5 38 8.4 SSE 6 15 3 8 1015.3 1012.5 0.0
25/01:00am 25.6 23.9 8.5 33 9.4 SE 7 13 4 7 1015.4 - 0.0
25/12:30am 25.0 23.9 10.1 39 8.4 ESE 6 9 3 5 1015.4 - 0.0
25/12:00am 25.0 24.5 10.8 41 8.1 SE 4 6 2 3 1015.4 - 0.0
 
Date/Time
CST
Temp
°C
App
Temp
°C
Dew
Point
Rel
Hum
%
Delta-T
°C
Wind Press
QNH
hPa
Press
MSL
hPa
Rain
since 9 am
mm
Dir
 
Spd
km/h
Gust
km/h
Spd
kts
Gust
kts
24/11:30pm 25.8 24.7 9.8 36 9.0 SE 6 13 3 7 1015.6 - 0.0
24/11:00pm 26.3 24.7 8.8 33 9.7 ESE 7 13 4 7 1015.6 - 0.0
24/10:30pm 26.2 24.9 9.9 35 9.2 SE 7 15 4 8 1015.8 1013.0 0.0
24/10:00pm 26.0 25.7 11.5 40 8.4 SE 4 6 2 3 1015.8 - 0.0
24/09:30pm 26.5 25.4 10.1 35 9.3 SSE 6 9 3 5 1015.7 - 0.0
24/09:00pm 26.4 26.0 11.1 38 8.8 SSE 4 7 2 4 1015.4 - 0.0
24/08:30pm 26.8 25.7 10.1 35 9.5 SSE 6 13 3 7 1014.8 - 0.0
24/08:00pm 27.1 25.6 9.0 32 10.1 SSE 7 13 4 7 1014.2 - 0.0
24/07:30pm 27.2 25.6 8.7 31 10.3 SSE 7 15 4 8 1013.9 1011.2 0.0
24/07:00pm 28.0 25.7 7.6 27 11.2 SSE 9 22 5 12 1013.4 - 0.0
24/06:30pm 28.3 27.6 10.1 32 10.4 E 4 7 2 4 1013.0 - 0.0

Other Formats:

Comma delimited format used in spreadsheet applications
http://www.bom.gov.au/fwo/IDD60801/IDD60801.94212.axf

JavaScript Object Notation format (JSON) in row-major order
http://www.bom.gov.au/fwo/IDD60801/IDD60801.94212.json